Time;durP1;ratioP1;P1;durP2;ratioP2;P2;SDS_P1;SDS_P2;PMS_P1;PMS_P2;Temp;Humidity;BMP_temperature;BMP_pressure;BME280_temperature;BME280_humidity;BME280_pressure;Samples;Min_cycle;Max_cycle;Signal;HPM_P1;HPM_P2
2022/09/09 00:01:20;;;;;;;10.20;7.00;;;13.10;99.90;;;;;;4954950;28;20057;-68
2022/09/09 00:04:14;;;;;;;11.07;6.50;;;13.10;99.90;;;;;;4987341;28;20100;-68
2022/09/09 00:07:03;;;;;;;12.17;6.70;;;13.10;99.90;;;;;;5018895;28;20625;-68
2022/09/09 00:09:39;;;;;;;14.97;7.33;;;13.10;99.90;;;;;;4980056;28;20297;-68
2022/09/09 00:12:16;;;;;;;10.30;7.23;;;13.10;99.90;;;;;;4982459;28;20380;-68
2022/09/09 00:15:00;;;;;;;11.97;7.37;;;13.10;99.90;;;;;;5012171;28;20678;-68
2022/09/09 00:17:42;;;;;;;11.73;7.13;;;13.10;99.90;;;;;;4985001;28;20321;-68
2022/09/09 00:20:37;;;;;;;11.93;7.23;;;13.10;99.90;;;;;;4988106;28;20710;-68
2022/09/09 00:23:27;;;;;;;8.77;7.28;;;13.10;99.90;;;;;;4979441;28;20285;-68
2022/09/09 00:26:05;;;;;;;12.73;7.00;;;13.10;99.90;;;;;;5017246;28;20046;-68
2022/09/09 00:28:35;;;;;;;15.27;7.30;;;13.10;99.90;;;;;;4986436;28;20282;-68
2022/09/09 00:31:28;;;;;;;12.40;7.47;;;13.10;99.90;;;;;;4970905;28;20324;-68
2022/09/09 00:33:58;;;;;;;12.53;7.23;;;13.10;99.90;;;;;;4971173;28;20845;-68
2022/09/09 00:36:28;;;;;;;11.17;7.57;;;13.10;99.90;;;;;;4986354;28;20285;-68
2022/09/09 00:39:00;;;;;;;12.00;7.20;;;13.10;99.90;;;;;;4999136;28;20286;-68
2022/09/09 00:41:37;;;;;;;10.10;7.57;;;13.10;99.90;;;;;;4965464;28;20392;-68
2022/09/09 00:44:34;;;;;;;14.23;8.13;;;13.10;99.90;;;;;;5019688;28;20265;-68
2022/09/09 00:47:31;;;;;;;12.30;7.47;;;13.10;99.90;;;;;;4982157;28;20313;-68
2022/09/09 00:50:34;;;;;;;12.90;7.40;;;13.00;99.90;;;;;;5018947;28;20286;-68
2022/09/09 00:53:12;;;;;;;11.10;7.47;;;13.00;99.90;;;;;;4983265;28;20285;-68
2022/09/09 00:55:47;;;;;;;12.07;7.10;;;13.00;99.90;;;;;;4985726;28;20281;-68
2022/09/09 00:58:13;;;;;;;16.57;7.47;;;13.00;99.90;;;;;;4969752;28;20281;-68
2022/09/09 01:00:42;;;;;;;12.57;7.77;;;13.00;99.90;;;;;;4985942;28;20305;-68
2022/09/09 01:03:34;;;;;;;11.13;7.70;;;13.10;99.90;;;;;;4983560;28;20831;-68
2022/09/09 01:06:21;;;;;;;13.87;7.23;;;13.10;99.90;;;;;;4985110;28;20679;-68
2022/09/09 01:09:08;;;;;;;10.77;7.13;;;13.10;99.90;;;;;;4986108;28;20281;-68
2022/09/09 01:11:55;;;;;;;10.80;6.83;;;13.20;99.90;;;;;;4986322;28;20274;-68
2022/09/09 01:14:30;;;;;;;12.47;7.27;;;13.20;99.90;;;;;;4986381;28;20600;-68
2022/09/09 01:17:08;;;;;;;11.55;7.70;;;13.30;99.90;;;;;;4985896;28;20823;-68
2022/09/09 01:19:43;;;;;;;9.67;7.33;;;13.40;99.90;;;;;;4977512;28;20073;-68
2022/09/09 01:22:27;;;;;;;9.38;7.63;;;13.40;99.90;;;;;;4970081;28;20292;-68
2022/09/09 01:25:13;;;;;;;12.13;7.80;;;13.40;99.90;;;;;;4969807;28;20089;-68
2022/09/09 01:27:39;;;;;;;;;;;13.50;99.90;;;;;;5018259;28;20578;-68
2022/09/09 01:30:09;;;;;;;;;;;13.50;99.90;;;;;;4986616;28;20683;-68
2022/09/09 01:32:37;;;;;;;;;;;13.50;99.90;;;;;;4986982;28;20381;-68
2022/09/09 01:35:03;;;;;;;;;;;13.50;99.90;;;;;;4986167;28;20298;-68
2022/09/09 01:37:29;;;;;;;;;;;13.40;99.90;;;;;;5002467;28;19925;-68
2022/09/09 01:39:55;;;;;;;;;;;13.40;99.90;;;;;;5008443;28;20357;-68
2022/09/09 01:42:20;;;;;;;;;;;13.40;99.90;;;;;;4986291;28;20429;-68
2022/09/09 01:44:46;;;;;;;;;;;13.40;99.90;;;;;;4985749;28;19917;-68
2022/09/09 01:47:11;;;;;;;;;;;13.30;99.90;;;;;;5005825;28;20294;-68
2022/09/09 01:49:37;;;;;;;;;;;13.30;99.90;;;;;;4967428;28;20012;-68
2022/09/09 01:52:02;;;;;;;;;;;13.30;99.90;;;;;;5015566;28;19925;-68
2022/09/09 01:54:31;;;;;;;;;;;13.30;99.90;;;;;;4965307;28;19921;-68
2022/09/09 01:57:18;;;;;;;;;;;13.30;99.90;;;;;;4999699;28;19933;-68
2022/09/09 02:00:05;;;;;;;;;;;13.20;99.90;;;;;;4985797;28;20165;-68
2022/09/09 02:02:43;;;;;;;;;;;13.20;99.90;;;;;;4958519;28;20008;-68
2022/09/09 02:05:20;;;;;;;;;;;13.20;99.90;;;;;;4986138;28;19964;-68
2022/09/09 02:07:49;;;;;;;;;;;13.20;99.90;;;;;;4985690;28;20370;-68
2022/09/09 02:10:15;;;;;;;;;;;13.20;99.90;;;;;;4986058;28;19921;-68
2022/09/09 02:12:43;;;;;;;;;;;13.10;99.90;;;;;;4983621;28;20301;-68
2022/09/09 02:15:15;;;;;;;;;;;13.10;99.90;;;;;;4978468;28;19941;-68
2022/09/09 02:17:42;;;;;;;;;;;13.10;99.90;;;;;;4988757;28;19921;-68
2022/09/09 02:20:09;;;;;;;;;;;13.10;99.90;;;;;;4990440;28;20339;-68
2022/09/09 02:22:39;;;;;;;;;;;13.10;99.90;;;;;;4989947;28;19921;-68
2022/09/09 02:25:06;;;;;;;;;;;13.10;99.90;;;;;;4989287;28;19921;-68
2022/09/09 02:27:32;;;;;;;;;;;13.20;99.90;;;;;;4989571;28;19952;-68
2022/09/09 02:30:00;;;;;;;;;;;13.20;99.90;;;;;;4957653;28;19921;-68
2022/09/09 02:32:26;;;;;;;;;;;13.20;99.90;;;;;;5022854;28;19922;-68
2022/09/09 02:34:57;;;;;;;;;;;13.20;99.90;;;;;;4973289;28;19918;-68
2022/09/09 02:37:28;;;;;;;;;;;13.30;99.90;;;;;;5002542;28;19969;-68
2022/09/09 02:39:54;;;;;;;;;;;13.30;99.90;;;;;;4974626;28;19926;-68
2022/09/09 02:42:19;;;;;;;;;;;13.30;99.90;;;;;;5005402;28;19989;-68
2022/09/09 02:44:45;;;;;;;;;;;13.20;99.90;;;;;;5001122;28;19921;-68
2022/09/09 02:47:29;;;;;;;;;;;13.30;99.90;;;;;;5010592;28;19922;-68
2022/09/09 02:50:22;;;;;;;;;;;13.20;99.90;;;;;;4987978;28;19924;-68
2022/09/09 02:52:54;;;;;;;;;;;13.20;99.90;;;;;;4996958;28;19918;-68
2022/09/09 02:55:40;;;;;;;;;;;13.20;99.90;;;;;;4989337;28;20371;-68
2022/09/09 02:58:07;;;;;;;;;;;13.20;99.90;;;;;;4988431;28;19980;-68
2022/09/09 03:00:35;;;;;;;;;;;13.20;99.90;;;;;;4988407;28;19922;-68
2022/09/09 03:03:02;;;;;;;;;;;13.20;99.90;;;;;;4985092;28;20224;-68
2022/09/09 03:05:28;;;;;;;;;;;13.20;99.90;;;;;;4988690;28;19917;-68
2022/09/09 03:07:53;;;;;;;;;;;13.20;99.90;;;;;;4988727;28;20396;-68
2022/09/09 03:10:19;;;;;;;;;;;13.20;99.90;;;;;;4973207;28;20333;-68
2022/09/09 03:12:45;;;;;;;;;;;13.30;99.90;;;;;;4972554;28;19929;-68
2022/09/09 03:15:11;;;;;;;;;;;13.30;99.90;;;;;;4972617;28;20057;-68
2022/09/09 03:17:36;;;;;;;;;;;13.30;99.90;;;;;;4987730;28;19940;-68
2022/09/09 03:20:03;;;;;;;;;;;13.30;99.90;;;;;;4997751;28;20420;-68
2022/09/09 03:22:29;;;;;;;;;;;13.40;99.90;;;;;;4988839;28;19922;-68
2022/09/09 03:24:54;;;;;;;;;;;13.40;99.90;;;;;;4955916;28;19918;-68
2022/09/09 03:27:20;;;;;;;;;;;13.40;99.90;;;;;;4983052;28;20264;-68
2022/09/09 03:29:46;;;;;;;;;;;13.40;99.90;;;;;;4985772;28;20005;-68
2022/09/09 03:32:12;;;;;;;;;;;13.40;99.90;;;;;;4988567;28;19921;-68
2022/09/09 03:34:40;;;;;;;;;;;13.40;99.90;;;;;;4988584;28;19964;-68
2022/09/09 03:37:06;;;;;;;;;;;13.40;99.90;;;;;;4971798;28;20610;-68
2022/09/09 03:39:31;;;;;;;;;;;13.40;99.90;;;;;;4965005;28;19926;-68
2022/09/09 03:41:57;;;;;;;;;;;13.40;99.90;;;;;;5020907;28;19924;-68
2022/09/09 03:44:22;;;;;;;;;;;13.40;99.90;;;;;;4956533;28;20145;-68
2022/09/09 03:46:48;;;;;;;;;;;13.40;99.90;;;;;;4987368;28;19972;-68
2022/09/09 03:49:15;;;;;;;;;;;13.40;99.90;;;;;;4987182;28;19922;-68
2022/09/09 03:51:40;;;;;;;;;;;13.40;99.90;;;;;;4984843;28;19921;-68
2022/09/09 03:54:08;;;;;;;;;;;13.40;99.90;;;;;;4987759;28;19925;-68
2022/09/09 03:56:34;;;;;;;;;;;13.40;99.90;;;;;;4971393;28;20008;-68
2022/09/09 03:59:00;;;;;;;;;;;13.40;99.90;;;;;;4988081;28;20344;-68
2022/09/09 04:01:25;;;;;;;;;;;13.30;99.90;;;;;;5016536;28;20375;-68
2022/09/09 04:03:52;;;;;;;;;;;13.30;99.90;;;;;;4985142;28;19976;-68
2022/09/09 04:06:18;;;;;;;;;;;13.30;99.90;;;;;;4984043;28;19918;-68
2022/09/09 04:08:44;;;;;;;;;;;13.30;99.90;;;;;;4988109;28;19976;-68
2022/09/09 04:11:09;;;;;;;;;;;13.30;99.90;;;;;;4955944;28;20432;-68
2022/09/09 04:13:37;;;;;;;;;;;13.30;99.90;;;;;;4968100;28;19921;-68
2022/09/09 04:16:03;;;;;;;;;;;13.30;99.90;;;;;;4971021;28;20393;-68
2022/09/09 04:18:29;;;;;;;;;;;13.40;99.90;;;;;;4971879;28;19949;-68
2022/09/09 04:20:57;;;;;;;;;;;13.40;99.90;;;;;;4964842;28;19925;-68
2022/09/09 04:23:23;;;;;;;;;;;13.40;99.90;;;;;;4999911;28;20028;-68
2022/09/09 04:25:51;;;;;;;;;;;13.40;99.90;;;;;;5017038;28;19949;-68
2022/09/09 04:28:17;;;;;;;;;;;13.40;99.90;;;;;;5020504;28;20286;-68
2022/09/09 04:30:43;;;;;;;;;;;13.40;99.90;;;;;;4987553;28;19921;-68
2022/09/09 04:33:09;;;;;;;;;;;13.40;99.90;;;;;;4987625;28;19924;-68
2022/09/09 04:35:35;;;;;;;;;;;13.40;99.90;;;;;;4984321;28;19925;-68
2022/09/09 04:38:02;;;;;;;;;;;13.50;99.90;;;;;;4986094;28;19926;-68
2022/09/09 04:40:29;;;;;;;;;;;13.50;99.90;;;;;;4978855;28;19975;-68
2022/09/09 04:42:55;;;;;;;;;;;13.50;99.90;;;;;;4987378;28;20382;-68
2022/09/09 04:45:20;;;;;;;;;;;13.50;99.90;;;;;;5019389;28;19968;-68
2022/09/09 04:47:46;;;;;;;;;;;13.50;99.90;;;;;;4987075;28;19922;-68
2022/09/09 04:50:12;;;;;;;;;;;13.50;99.90;;;;;;4971034;28;19917;-68
2022/09/09 04:52:37;;;;;;;;;;;13.50;99.90;;;;;;5020286;28;19921;-68
2022/09/09 04:55:03;;;;;;;;;;;13.50;99.90;;;;;;5018885;28;19917;-68
2022/09/09 04:57:31;;;;;;;;;;;13.50;99.90;;;;;;4970049;28;19961;-68
2022/09/09 04:59:57;;;;;;;;;;;13.50;99.90;;;;;;4985712;28;19934;-68
2022/09/09 05:02:23;;;;;;;;;;;13.50;99.90;;;;;;4970359;28;19918;-68
2022/09/09 05:04:49;;;;;;;;;;;13.50;99.90;;;;;;5019068;28;19918;-68
2022/09/09 05:07:15;;;;;;;;;;;13.50;99.90;;;;;;5002448;28;19948;-68
2022/09/09 05:09:40;;;;;;;;;;;13.50;99.90;;;;;;5019419;28;20382;-68
2022/09/09 05:12:06;;;;;;;;;;;13.50;99.90;;;;;;4984170;28;20444;-68
2022/09/09 05:14:32;;;;;;;;;;;13.50;99.90;;;;;;5013609;28;19921;-68
2022/09/09 05:16:57;;;;;;;;;;;13.50;99.90;;;;;;4976677;28;19948;-68
2022/09/09 05:19:23;;;;;;;;;;;13.50;99.90;;;;;;4965606;28;19922;-68
2022/09/09 05:21:49;;;;;;;;;;;13.50;99.90;;;;;;4980083;28;20399;-68
2022/09/09 05:24:16;;;;;;;;;;;13.50;99.90;;;;;;4964486;28;20334;-68
2022/09/09 05:26:42;;;;;;;;;;;13.50;99.90;;;;;;4965563;28;19961;-68
2022/09/09 05:29:08;;;;;;;;;;;13.50;99.90;;;;;;4995642;28;19963;-68
2022/09/09 05:31:34;;;;;;;;;;;13.50;99.90;;;;;;5011042;28;20446;-68
2022/09/09 05:33:59;;;;;;;;;;;13.50;99.90;;;;;;5015411;28;20019;-68
2022/09/09 05:36:25;;;;;;;;;;;13.50;99.90;;;;;;4980846;28;20307;-68
2022/09/09 05:38:53;;;;;;;;;;;13.50;99.90;;;;;;4966240;28;19925;-68
2022/09/09 05:41:19;;;;;;;;;;;13.50;99.90;;;;;;5015623;28;19922;-68
2022/09/09 05:43:46;;;;;;;;;;;13.50;99.90;;;;;;5018444;28;19932;-68
2022/09/09 05:46:16;;;;;;;;;;;13.60;99.90;;;;;;4951836;28;19918;-69
2022/09/09 05:48:43;;;;;;;;;;;13.60;99.90;;;;;;4997507;28;19971;-69
2022/09/09 05:51:15;;;;;;;;;;;13.60;99.90;;;;;;4992183;28;19922;-69
2022/09/09 05:53:41;;;;;;;;;;;13.60;99.90;;;;;;4968550;28;20398;-69
2022/09/09 05:56:10;;;;;;;;;;;13.60;99.90;;;;;;4987637;28;19951;-69
2022/09/09 05:58:36;;;;;;;;;;;13.70;99.90;;;;;;4965400;28;20016;-69
2022/09/09 06:01:04;;;;;;;;;;;13.70;99.90;;;;;;4971119;28;19953;-69
2022/09/09 06:03:30;;;;;;;;;;;13.70;99.90;;;;;;4984776;28;20354;-69
2022/09/09 06:05:59;;;;;;;;;;;13.80;99.90;;;;;;4953645;28;19953;-69
2022/09/09 06:08:25;;;;;;;;;;;13.80;99.90;;;;;;4970198;28;19996;-69
2022/09/09 06:10:52;;;;;;;;;;;13.90;99.90;;;;;;4969473;28;20028;-69
2022/09/09 06:13:17;;;;;;;;;;;13.90;99.90;;;;;;4991443;28;19917;-69
2022/09/09 06:15:52;;;;;;;;;;;14.00;99.90;;;;;;4969103;28;20429;-69
2022/09/09 06:18:18;;;;;;;;;;;14.00;99.90;;;;;;4972691;28;20008;-69
2022/09/09 06:20:54;;;;;;;;;;;14.00;99.90;;;;;;4989812;28;20354;-69
2022/09/09 06:23:20;;;;;;;;;;;14.10;99.90;;;;;;5002993;28;20337;-69
2022/09/09 06:25:46;;;;;;;;;;;14.10;99.90;;;;;;5022812;28;19921;-69
2022/09/09 06:28:11;;;;;;;;;;;14.10;99.90;;;;;;4976076;28;20410;-69
2022/09/09 06:30:37;;;;;;;;;;;14.10;99.90;;;;;;4975571;28;20343;-69
2022/09/09 06:33:03;;;;;;;;;;;14.10;99.90;;;;;;5008722;28;19940;-69
2022/09/09 06:35:32;;;;;;;;;;;14.20;99.90;;;;;;4989227;28;20122;-69
2022/09/09 06:37:58;;;;;;;;;;;14.20;99.90;;;;;;5018576;28;20233;-69
2022/09/09 06:40:24;;;;;;;;;;;14.20;99.90;;;;;;4962408;28;19922;-69
2022/09/09 06:42:50;;;;;;;;;;;14.20;99.90;;;;;;4986146;28;20004;-68
2022/09/09 06:45:16;;;;;;;;;;;14.20;99.90;;;;;;5016720;28;20036;-68
2022/09/09 06:47:42;;;;;;;;;;;14.20;99.90;;;;;;4969304;28;19922;-68
2022/09/09 06:50:07;;;;;;;;;;;14.20;99.90;;;;;;4953469;28;19953;-68
2022/09/09 06:52:33;;;;;;;;;;;14.20;99.90;;;;;;5018739;28;20360;-68
2022/09/09 06:54:59;;;;;;;;;;;14.20;99.90;;;;;;5017874;28;20449;-68
2022/09/09 06:57:24;;;;;;;;;;;14.30;99.90;;;;;;4986262;28;20267;-68
2022/09/09 06:59:50;;;;;;;;;;;14.30;99.90;;;;;;4968765;28;19928;-68
2022/09/09 07:02:16;;;;;;;;;;;14.30;99.90;;;;;;4987165;28;19930;-68
2022/09/09 07:04:41;;;;;;;;;;;14.30;99.90;;;;;;4988989;28;20433;-68
2022/09/09 07:07:09;;;;;;;;;;;14.30;99.90;;;;;;5016583;28;19961;-68
2022/09/09 07:09:35;;;;;;;;;;;14.30;99.90;;;;;;4960068;28;19928;-69
2022/09/09 07:12:01;;;;;;;;;;;14.40;99.90;;;;;;4974939;28;20367;-69
2022/09/09 07:14:26;;;;;;;;;;;14.40;99.90;;;;;;4977430;28;20291;-69
2022/09/09 07:16:52;;;;;;;;;;;14.50;99.90;;;;;;4994481;28;19917;-69
2022/09/09 07:19:18;;;;;;;;;;;14.50;99.90;;;;;;4978654;28;19922;-68
2022/09/09 07:21:43;;;;;;;;;;;14.60;99.90;;;;;;5009053;28;19924;-68
2022/09/09 07:24:09;;;;;;;;;;;14.60;99.90;;;;;;4988319;28;20394;-68
2022/09/09 07:26:36;;;;;;;;;;;14.60;99.90;;;;;;4988263;28;20027;-68
2022/09/09 07:29:02;;;;;;;;;;;14.70;99.90;;;;;;4977728;28;20008;-69
2022/09/09 07:31:31;;;;;;;;;;;14.70;99.90;;;;;;4992191;28;20004;-69
2022/09/09 07:33:57;;;;;;;;;;;14.80;99.90;;;;;;5012401;28;20137;-69
2022/09/09 07:36:27;;;;;;;;;;;14.90;99.90;;;;;;4961626;28;19968;-69
2022/09/09 07:38:55;;;;;;;;;;;15.00;99.90;;;;;;4970365;28;20020;-69
2022/09/09 07:41:22;;;;;;;;;;;15.10;99.90;;;;;;4981434;28;19929;-69
2022/09/09 07:43:48;;;;;;;;;;;15.30;99.90;;;;;;4987988;28;19918;-69
2022/09/09 07:46:15;;;;;;;;;;;15.40;99.90;;;;;;4970819;28;19918;-69
2022/09/09 07:48:51;;;;;;;;;;;15.60;99.90;;;;;;4971999;28;20378;-69
2022/09/09 07:51:19;;;;;;;;;;;15.70;99.90;;;;;;4986759;28;19917;-69
2022/09/09 07:53:45;;;;;;;;;;;15.80;99.90;;;;;;5016289;28;19928;-69
2022/09/09 07:56:12;;;;;;;;;;;16.00;99.90;;;;;;4986006;28;19977;-69
2022/09/09 07:58:39;;;;;;;;;;;16.00;99.90;;;;;;4990237;28;19960;-69
2022/09/09 08:01:17;;;;;;;;;;;16.20;99.90;;;;;;4979681;28;19966;-69
2022/09/09 08:03:44;;;;;;;;;;;16.40;99.90;;;;;;5000275;28;19925;-69
2022/09/09 08:06:11;;;;;;;;;;;16.40;99.90;;;;;;4992480;28;19937;-69
2022/09/09 08:08:37;;;;;;;;;;;16.40;99.90;;;;;;4982590;28;19921;-69
2022/09/09 08:11:07;;;;;;;;;;;16.60;99.90;;;;;;5016754;28;20357;-69
2022/09/09 08:13:36;;;;;;;;;;;16.70;99.90;;;;;;4991260;28;19921;-69
2022/09/09 08:16:10;;;;;;;;;;;16.80;99.90;;;;;;5020791;28;19932;-69
2022/09/09 08:18:35;;;;;;;;;;;16.90;99.90;;;;;;4999926;28;19917;-69
2022/09/09 08:21:08;;;;;;;;;;;17.00;99.90;;;;;;4983229;28;19956;-69
2022/09/09 08:23:34;;;;;;;;;;;17.10;99.90;;;;;;5024025;28;19921;-69
2022/09/09 08:26:23;;;;;;;;;;;17.20;99.90;;;;;;4992465;28;19973;-69
2022/09/09 08:28:51;;;;;;;;;;;17.40;99.90;;;;;;4994414;28;19930;-69
2022/09/09 08:31:27;;;;;;;;;;;17.50;99.90;;;;;;4991131;28;19975;-69
2022/09/09 08:33:54;;;;;;;;;;;17.50;99.60;;;;;;4991219;28;19917;-68
2022/09/09 08:36:21;;;;;;;;;;;17.60;99.90;;;;;;5027058;28;19918;-68
2022/09/09 08:38:50;;;;;;;;;;;17.60;99.80;;;;;;4978490;28;20417;-68
2022/09/09 08:41:35;;;;;;;;;;;17.80;99.60;;;;;;4987234;28;19925;-68
2022/09/09 08:44:06;;;;;;;;;;;17.80;98.80;;;;;;5000342;28;19921;-68
2022/09/09 08:46:32;;;;;;;;;;;17.90;99.20;;;;;;4994312;28;20206;-68
2022/09/09 08:49:21;;;;;;;;;;;18.00;98.80;;;;;;4991552;28;20596;-68
2022/09/09 08:51:48;;;;;;;;;;;18.00;96.10;;;;;;4961354;28;20228;-68
2022/09/09 08:54:13;;;;;;;;;;;18.10;96.40;;;;;;5005259;28;20290;-69
2022/09/09 08:56:39;;;;;;;;;;;18.00;96.20;;;;;;5010149;28;19917;-69
2022/09/09 08:59:05;;;;;;;;;;;18.00;97.90;;;;;;4988801;28;20371;-69
2022/09/09 09:01:54;;;;;;;;;;;18.10;98.90;;;;;;5008653;28;19928;-69
2022/09/09 09:04:22;;;;;;;;;;;18.10;96.30;;;;;;4955788;28;19917;-69
2022/09/09 09:07:00;;;;;;;;;;;18.30;96.80;;;;;;5016046;28;19921;-69
2022/09/09 09:09:46;;;;;;;;;;;18.40;97.90;;;;;;4993032;28;20337;-69
2022/09/09 09:12:26;;;;;;;;;;;18.30;96.70;;;;;;4970869;28;19928;-69
2022/09/09 09:14:52;;;;;;;;;;;18.20;95.30;;;;;;5016031;28;20643;-69
2022/09/09 09:17:21;;;;;;;;;;;18.10;95.50;;;;;;4968167;28;19933;-69
2022/09/09 09:19:47;;;;;;;;;;;18.10;93.60;;;;;;5011490;28;19926;-69
2022/09/09 09:22:22;;;;;;;;;;;18.10;96.60;;;;;;4984299;28;19917;-69
2022/09/09 09:24:51;;;;;;;;;;;18.20;97.50;;;;;;4969319;28;19965;-69
2022/09/09 09:27:21;;;;;;;;;;;18.10;96.00;;;;;;4984218;28;19922;-69
2022/09/09 09:29:49;;;;;;;;;;;18.10;92.90;;;;;;5020331;28;19925;-69
2022/09/09 09:32:17;;;;;;;;;;;18.20;97.10;;;;;;4975331;28;19956;-69
2022/09/09 09:34:48;;;;;;;;;;;18.20;94.30;;;;;;4987986;28;19924;-69
2022/09/09 09:37:19;;;;;;;;;;;18.20;96.70;;;;;;5003341;28;19944;-69
2022/09/09 09:39:45;;;;;;;;;;;18.20;91.20;;;;;;4980157;28;19925;-69
2022/09/09 09:42:15;;;;;;;;;;;18.20;91.60;;;;;;5017856;28;19925;-69
2022/09/09 09:44:41;;;;;;;;;;;18.20;89.30;;;;;;5000093;28;20371;-68
2022/09/09 09:47:12;;;;;;;;;;;18.50;92.90;;;;;;5016659;28;19917;-68
2022/09/09 09:49:37;;;;;;;;;;;18.60;91.20;;;;;;4997597;28;19925;-68
2022/09/09 09:52:04;;;;;;;;;;;18.70;91.40;;;;;;5018449;28;19918;-69
2022/09/09 09:54:31;;;;;;;;;;;18.80;92.40;;;;;;4961655;28;20365;-69
2022/09/09 09:57:07;;;;;;;;;;;18.80;86.60;;;;;;5021522;28;19921;-69
2022/09/09 09:59:34;;;;;;;;;;;18.90;91.00;;;;;;4980541;28;19973;-69
2022/09/09 10:02:27;;;;;;;;;;;18.90;88.00;;;;;;5018663;28;19976;-69
2022/09/09 10:05:02;;;;;;;;;;;18.90;87.10;;;;;;4986632;28;19978;-69
2022/09/09 10:07:28;;;;;;;;;;;19.00;87.30;;;;;;4994117;28;19937;-69
2022/09/09 10:09:55;;;;;;;;;;;19.00;84.00;;;;;;5014612;28;20004;-69
2022/09/09 10:12:30;;;;;;;;;;;19.20;84.90;;;;;;5026399;28;19918;-69
2022/09/09 10:15:13;;;;;;;;;;;19.20;86.80;;;;;;4971189;28;19918;-69
2022/09/09 10:17:45;;;;;;;;;;;19.20;82.50;;;;;;5018544;28;20032;-69
2022/09/09 10:20:20;;;;;;;;;;;19.30;84.50;;;;;;4978207;28;20481;-69
2022/09/09 10:22:51;;;;;;;;;;;19.20;83.30;;;;;;4988681;28;20371;-69
2022/09/09 10:25:41;;;;;;;;;;;19.10;82.10;;;;;;4993461;28;20698;-68
2022/09/09 10:28:20;;;;;;;;;;;19.10;83.00;;;;;;4994638;28;20397;-68
2022/09/09 10:30:55;;;;;;;;;;;19.10;83.60;;;;;;4976261;28;20417;-68
2022/09/09 10:33:37;;;;;;;;;;;19.30;84.20;;;;;;4988795;28;20416;-68
2022/09/09 10:36:23;;;;;;;;;;;19.60;86.00;;;;;;4988728;28;19922;-68
2022/09/09 10:39:08;;;;;;;;;;;19.80;80.90;;;;;;4988476;28;19922;-68
2022/09/09 10:41:34;;;;;;;;;;;19.90;77.60;;;;;;5017886;28;19925;-68
2022/09/09 10:44:00;;;;;;;;;;;19.90;80.70;;;;;;4993652;28;19928;-68
2022/09/09 10:46:49;;;;;;;;;;;19.90;81.70;;;;;;4994950;28;19926;-68
2022/09/09 10:49:17;;;;;;;;;;;19.90;81.10;;;;;;4991873;28;19921;-68
2022/09/09 10:51:43;;;;;;;;;;;19.90;76.10;;;;;;4987928;28;20183;-68
2022/09/09 10:54:10;;;;;;;;;;;19.90;78.90;;;;;;4993835;28;19925;-68
2022/09/09 10:56:36;;;;;;;;;;;19.80;79.80;;;;;;4977314;28;19968;-68
2022/09/09 10:59:04;;;;;;;;;;;19.70;79.90;;;;;;4995725;28;19928;-68
2022/09/09 11:01:35;;;;;;;;;;;19.60;78.70;;;;;;5030536;28;20282;-68
2022/09/09 11:04:03;;;;;;;;;;;19.60;78.10;;;;;;5000614;28;20278;-68
2022/09/09 11:06:34;;;;;;;;;;;19.60;77.90;;;;;;4985104;28;19925;-68
2022/09/09 11:09:01;;;;;;;;;;;19.70;78.80;;;;;;4988338;28;19921;-68
2022/09/09 11:11:27;;;;;;;;;;;19.80;78.80;;;;;;5020721;28;19972;-68
2022/09/09 11:13:54;;;;;;;;;;;20.00;80.50;;;;;;4988704;28;19926;-68
2022/09/09 11:16:38;;;;;;;;;;;20.10;76.70;;;;;;5012014;28;19922;-68
2022/09/09 11:19:17;;;;;;;;;;;20.10;76.20;;;;;;4986654;28;19917;-68
2022/09/09 11:21:47;;;;;;;;;;;20.00;74.90;;;;;;4985764;28;19944;-68
2022/09/09 11:24:16;;;;;;;;;;;19.90;75.60;;;;;;5026142;28;19981;-68
2022/09/09 11:26:47;;;;;;;;;;;20.20;77.70;;;;;;4972677;28;20409;-68
2022/09/09 11:29:33;;;;;;;;;;;20.40;78.30;;;;;;5021085;28;19917;-68
2022/09/09 11:31:58;;;;;;;;;;;20.40;77.10;;;;;;5018119;28;20316;-68
2022/09/09 11:34:30;;;;;;;;;;;20.50;73.60;;;;;;4992349;28;19922;-68
2022/09/09 11:37:01;;;;;;;;;;;20.70;80.00;;;;;;4992061;28;19921;-68
2022/09/09 11:39:30;;;;;;;;;;;20.80;75.00;;;;;;5026951;28;20000;-68
2022/09/09 11:42:14;;;;;;;;;;;20.80;75.30;;;;;;4990070;28;20012;-68
2022/09/09 11:44:40;;;;;;;;;;;20.70;76.30;;;;;;4986994;28;20360;-68
2022/09/09 11:47:19;;;;;;;;;;;20.70;76.60;;;;;;4987439;28;20005;-68
2022/09/09 11:49:45;;;;;;;;;;;20.80;78.10;;;;;;5016127;28;20000;-68
2022/09/09 11:52:25;;;;;;;;;;;20.90;72.70;;;;;;4987697;28;20457;-68
2022/09/09 11:54:51;;;;;;;;;;;20.80;73.00;;;;;;4977809;28;19921;-68
2022/09/09 11:57:32;;;;;;;;;;;20.50;72.70;;;;;;4987428;28;19959;-68
2022/09/09 11:59:58;;;;;;;;;;;20.30;76.60;;;;;;4997343;28;19945;-68
2022/09/09 12:02:26;;;;;;;;;;;20.10;75.60;;;;;;4980718;28;19917;-68
2022/09/09 12:05:05;;;;;;;;;;;20.00;76.70;;;;;;4976599;28;20391;-68
2022/09/09 12:07:40;;;;;;;;;;;19.80;75.60;;;;;;4999143;28;20058;-68
2022/09/09 12:10:26;;;;;;;;;;;19.70;77.30;;;;;;4993210;28;19918;-68
2022/09/09 12:12:51;;;;;;;;;;;19.70;76.70;;;;;;4993232;28;19936;-68
2022/09/09 12:15:20;;;;;;;;;;;20.10;79.40;;;;;;4995160;28;19925;-68
2022/09/09 12:17:47;;;;;;;;;;;20.50;77.30;;;;;;4992166;28;19932;-68
2022/09/09 12:20:24;;;;;;;;;;;20.70;75.60;;;;;;4992372;28;20438;-68
2022/09/09 12:23:02;;;;;;;;;;;20.90;73.60;;;;;;4994767;28;19924;-68
2022/09/09 12:25:47;;;;;;;;;;;20.90;76.60;;;;;;4989156;28;19918;-68
2022/09/09 12:28:18;;;;;;;;;;;20.90;75.30;;;;;;4994771;28;20293;-68
2022/09/09 12:30:46;;;;;;;;;;;20.80;74.00;;;;;;5022456;28;19921;-68
2022/09/09 12:33:13;;;;;;;;;;;20.70;77.70;;;;;;4972317;28;19926;-68
2022/09/09 12:35:40;;;;;;;;;;;20.60;77.30;;;;;;5027762;28;20036;-68
2022/09/09 12:38:09;;;;;;;;;;;20.50;74.40;;;;;;4992739;28;20472;-68
2022/09/09 12:40:39;;;;;;;;;;;20.70;75.00;;;;;;4992713;28;19933;-68
2022/09/09 12:43:16;;;;;;;;;;;21.00;74.00;;;;;;4988614;28;20465;-68
2022/09/09 12:45:42;;;;;;;;;;;21.00;74.50;;;;;;4992502;28;19932;-68
2022/09/09 12:48:11;;;;;;;;;;;20.90;72.40;;;;;;4994769;28;19917;-68
2022/09/09 12:50:52;;;;;;;;;;;20.80;75.50;;;;;;4986593;28;19929;-68
2022/09/09 12:53:26;;;;;;;;;;;20.90;72.50;;;;;;4986620;28;19926;-68
2022/09/09 12:55:54;;;;;;;;;;;21.00;72.90;;;;;;4994487;28;19982;-68
2022/09/09 12:58:20;;;;;;;;;;;21.00;74.90;;;;;;5007698;28;20374;-68
2022/09/09 13:00:51;;;;;;;;;;;20.90;74.00;;;;;;4990089;28;19925;-68
2022/09/09 13:03:18;;;;;;;;;;;20.90;75.20;;;;;;4989998;28;19928;-68
2022/09/09 13:05:44;;;;;;;;;;;20.90;73.50;;;;;;4975222;28;19921;-68
2022/09/09 13:08:10;;;;;;;;;;;21.10;73.20;;;;;;4996577;28;20153;-68
2022/09/09 13:10:42;;;;;;;;;;;21.30;73.90;;;;;;4990165;28;20021;-68
2022/09/09 13:13:16;;;;;;;;;;;21.50;70.80;;;;;;5024500;28;20374;-68
2022/09/09 13:15:48;;;;;;;;;;;21.40;71.00;;;;;;4978734;28;19922;-68
2022/09/09 13:18:21;;;;;;;;;;;21.30;72.70;;;;;;4985483;28;19918;-68
2022/09/09 13:20:48;;;;;;;;;;;21.20;73.20;;;;;;4977449;28;19921;-68
2022/09/09 13:23:15;;;;;;;;;;;20.90;72.80;;;;;;4971653;28;19922;-68
2022/09/09 13:25:40;;;;;;;;;;;20.70;71.90;;;;;;4989899;28;19960;-68
2022/09/09 13:28:19;;;;;;;;;;;20.40;74.80;;;;;;4982960;28;19926;-69
2022/09/09 13:30:56;;;;;;;;;;;20.00;77.30;;;;;;4969870;28;19921;-68
2022/09/09 13:33:22;;;;;;;;;;;19.50;78.90;;;;;;4981138;28;19960;-68
2022/09/09 13:36:04;;;;;;;;;;;19.20;81.20;;;;;;5021153;28;20234;-68
2022/09/09 13:38:31;;;;;;;;;;;19.30;83.60;;;;;;4986861;28;19975;-68
2022/09/09 13:41:03;;;;;;;;;;;19.50;84.10;;;;;;5010107;28;20451;-68
2022/09/09 13:43:29;;;;;;;;;;;19.70;82.90;;;;;;4987304;28;20337;-68
2022/09/09 13:45:59;;;;;;;;;;;19.90;82.90;;;;;;4992492;28;19975;-68
2022/09/09 13:48:25;;;;;;;;;;;20.20;83.60;;;;;;4973369;28;20324;-68
2022/09/09 13:50:58;;;;;;;;;;;20.40;82.00;;;;;;4980987;28;20468;-68
2022/09/09 13:53:24;;;;;;;;;;;20.70;83.40;;;;;;5021210;28;19984;-68
2022/09/09 13:55:51;;;;;;;;;;;20.90;81.40;;;;;;4993174;28;20366;-68
2022/09/09 13:58:19;;;;;;;;;;;21.10;80.80;;;;;;5022832;28;19917;-68
2022/09/09 14:00:46;;;;;;;;;;;21.10;78.30;;;;;;4976018;28;19929;-68
2022/09/09 14:03:11;;;;;;;;;;;20.90;77.50;;;;;;4991784;28;20321;-68
2022/09/09 14:05:37;;;;;;;;;;;20.70;79.90;;;;;;5022442;28;19918;-68
2022/09/09 14:08:03;;;;;;;;;;;20.60;78.70;;;;;;4993638;28;19944;-68
2022/09/09 14:10:29;;;;;;;;;;;20.40;76.00;;;;;;4990984;28;19965;-68
2022/09/09 14:12:54;;;;;;;;;;;20.30;79.30;;;;;;5002286;28;19969;-68
2022/09/09 14:15:21;;;;;;;;;;;20.10;78.00;;;;;;5009578;28;19925;-68
2022/09/09 14:17:48;;;;;;;;;;;20.00;79.30;;;;;;4994100;28;19921;-68
2022/09/09 14:20:15;;;;;;;;;;;19.90;78.90;;;;;;4994501;28;20097;-68
2022/09/09 14:22:40;;;;;;;;;;;19.80;80.50;;;;;;4966665;28;20421;-68
2022/09/09 14:25:07;;;;;;;;;;;19.70;81.70;;;;;;4990357;28;19965;-68